首页
METAR-TAF:

METAR-TAF

机场 :

热舒夫, 波兰

纬度: 50-06N, 经度: 022-03E, 海拔: 200米

当前天气观测

该预报发布于33分钟前的02:30 UTC
风速14节,风向西
温度 0°C
湿度 80%
气压 1042 hPa
能见度10公里或以上
阴天层高于1500英尺

METAR: EPRZ 210230Z 26014KT 9999 OVC015 00/M03 Q1042

时间: 04:03 (03:03 UTC)

预报

该预报发布于3小时和33分钟前的23:30 UTC
预报有效从21日的 00点(UTC)到 21日的 24点(UTC)
风速10节,风向西
能见度10公里或以上
多云层高于2000英尺
几率 40% :
短暂存在
从 21日的 00点(UTC)到 21日的 07点(UTC)
能見度: 3000
多云层高于600英尺
轻雾

TAF: EPRZ 202330Z 2100/2124 26010KT 9999 BKN020 PROB40 TEMPO 2100/2107 3000 BR BKN006

超过4000个机场的气象观测和天气预报(METAR&TAF报告)。

可查询的气象台以黄色和红色小点在地图上表示。

将鼠标移到小点上方,可查看气象台名称。

然后点击查看天气观测和预报。

如需切换地图:点击带黑十字的绿色按钮放大地图;点击带横线的绿色按钮缩小地图;或者点击绿色箭头查看邻近地区的地图。


METAR-TAF: